Time;durP1;ratioP1;P1;durP2;ratioP2;P2;SDS_P1;SDS_P2;PMS_P1;PMS_P2;Temp;Humidity;BMP_temperature;BMP_pressure;BME280_temperature;BME280_humidity;BME280_pressure;Samples;Min_cycle;Max_cycle;Signal;HPM_P1;HPM_P2
2021/09/12 00:00:30;;;;;;;6.60;3.90;;;18.30;68.20;;;;;;4997124;28;20229;-89
2021/09/12 00:02:55;;;;;;;9.53;3.83;;;18.40;68.30;;;;;;4996802;28;20245;-89
2021/09/12 00:05:21;;;;;;;6.10;4.37;;;18.30;68.30;;;;;;4979556;28;20183;-89
2021/09/12 00:07:47;;;;;;;8.40;4.30;;;18.20;68.50;;;;;;4979654;28;20179;-89
2021/09/12 00:10:14;;;;;;;10.60;4.70;;;18.10;69.60;;;;;;5006651;28;20214;-89
2021/09/12 00:12:40;;;;;;;6.70;4.75;;;18.00;69.00;;;;;;4968354;28;20219;-88
2021/09/12 00:15:09;;;;;;;7.33;4.33;;;18.10;69.10;;;;;;4978607;28;20186;-88
2021/09/12 00:17:34;;;;;;;8.82;4.70;;;18.00;69.10;;;;;;4979337;28;20229;-88
2021/09/12 00:20:00;;;;;;;5.10;3.80;;;17.90;69.40;;;;;;4979367;28;20183;-87
2021/09/12 00:22:26;;;;;;;17.57;4.37;;;18.00;69.40;;;;;;4978098;28;20234;-87
2021/09/12 00:24:52;;;;;;;6.27;3.67;;;18.00;69.30;;;;;;4979708;28;20210;-88
2021/09/12 00:27:17;;;;;;;12.90;4.47;;;18.00;69.20;;;;;;4982195;28;20183;-87
2021/09/12 00:29:43;;;;;;;8.03;3.80;;;17.80;69.40;;;;;;4978566;28;20430;-88
2021/09/12 00:32:09;;;;;;;7.67;4.20;;;17.90;69.60;;;;;;4978282;28;20482;-88
2021/09/12 00:34:35;;;;;;;11.23;4.10;;;17.80;69.60;;;;;;4979845;28;20175;-88
2021/09/12 00:37:02;;;;;;;12.27;4.30;;;17.80;69.70;;;;;;5000997;28;20207;-88
2021/09/12 00:39:29;;;;;;;7.25;4.40;;;17.80;69.40;;;;;;4970097;28;20473;-88
2021/09/12 00:41:55;;;;;;;5.55;3.63;;;18.00;69.60;;;;;;4976690;28;20190;-87
2021/09/12 00:44:23;;;;;;;7.05;4.05;;;18.00;69.30;;;;;;4968802;28;20226;-88
2021/09/12 00:46:48;;;;;;;6.60;4.45;;;18.20;69.30;;;;;;4959301;28;20191;-88
2021/09/12 00:49:15;;;;;;;5.80;4.00;;;18.10;69.00;;;;;;4976424;28;20187;-88
2021/09/12 00:51:42;;;;;;;9.85;4.50;;;18.20;68.80;;;;;;4958582;28;20206;-89
2021/09/12 00:54:09;;;;;;;15.25;5.07;;;18.10;68.70;;;;;;4958638;28;20204;-89
2021/09/12 00:56:37;;;;;;;7.30;5.68;;;17.90;68.80;;;;;;4958959;28;20180;-89
2021/09/12 00:59:06;;;;;;;8.55;4.22;;;17.90;69.10;;;;;;4958536;28;20247;-89
2021/09/12 01:01:34;;;;;;;10.05;4.45;;;17.80;69.10;;;;;;4958221;28;20195;-89
2021/09/12 01:04:00;;;;;;;9.98;4.57;;;17.70;69.50;;;;;;4958619;28;20553;-88
2021/09/12 01:06:26;;;;;;;10.10;4.37;;;17.60;69.90;;;;;;4976135;28;20187;-88
2021/09/12 01:08:52;;;;;;;11.30;4.50;;;17.70;70.20;;;;;;4985398;28;20183;-86
2021/09/12 01:11:17;;;;;;;8.30;4.40;;;17.80;69.80;;;;;;4975906;28;20491;-87
2021/09/12 01:13:44;;;;;;;12.67;5.27;;;17.80;69.50;;;;;;4967755;28;20538;-86
2021/09/12 01:16:15;;;;;;;5.50;5.00;;;17.80;69.40;;;;;;4959633;28;20180;-87
2021/09/12 01:18:43;;;;;;;10.88;4.72;;;17.60;69.70;;;;;;4978613;28;20176;-87
2021/09/12 01:21:20;;;;;;;8.85;4.65;;;17.70;70.10;;;;;;4984897;28;20168;-86
2021/09/12 01:23:47;;;;;;;13.50;4.85;;;17.70;70.00;;;;;;4965146;28;20211;-87
2021/09/12 01:26:12;;;;;;;6.22;4.53;;;17.80;69.60;;;;;;4982500;28;20195;-87
2021/09/12 01:28:42;;;;;;;9.90;4.60;;;17.80;69.50;;;;;;4966976;28;20184;-87
2021/09/12 01:31:21;;;;;;;6.82;4.30;;;17.70;69.70;;;;;;4965162;28;20176;-87
2021/09/12 01:33:47;;;;;;;6.43;4.30;;;17.60;69.70;;;;;;4983149;28;20227;-88
2021/09/12 01:36:13;;;;;;;11.80;5.10;;;17.70;69.70;;;;;;4967176;28;20180;-87
2021/09/12 01:38:39;;;;;;;9.57;4.67;;;17.60;69.70;;;;;;4967607;28;20965;-88
2021/09/12 01:41:04;;;;;;;9.77;4.67;;;17.50;70.10;;;;;;4967827;28;20180;-88
2021/09/12 01:43:30;;;;;;;7.87;4.80;;;17.60;70.10;;;;;;4966952;28;20459;-89
2021/09/12 01:45:56;;;;;;;11.53;4.77;;;17.50;70.10;;;;;;4969894;28;20183;-88
2021/09/12 01:48:21;;;;;;;8.90;5.33;;;17.40;70.30;;;;;;4985301;28;20183;-88
2021/09/12 01:50:47;;;;;;;10.00;4.17;;;17.20;70.60;;;;;;4968162;28;20195;-87
2021/09/12 01:53:13;;;;;;;6.70;3.97;;;17.20;70.70;;;;;;4985445;28;20217;-87
2021/09/12 01:55:39;;;;;;;9.63;4.13;;;17.20;70.80;;;;;;4984925;28;20502;-88
2021/09/12 01:58:04;;;;;;;7.60;4.23;;;17.20;71.00;;;;;;4985940;28;20707;-88
2021/09/12 02:00:32;;;;;;;5.77;4.47;;;17.30;71.00;;;;;;4967497;28;20187;-89
2021/09/12 02:02:58;;;;;;;8.60;4.40;;;17.20;70.90;;;;;;4985092;28;20259;-88
2021/09/12 02:05:25;;;;;;;4.43;3.72;;;17.20;71.00;;;;;;4974848;28;20172;-89
2021/09/12 02:07:51;;;;;;;4.35;3.95;;;17.20;71.10;;;;;;4961871;28;20188;-88
2021/09/12 02:10:17;;;;;;;7.60;4.57;;;17.10;71.20;;;;;;4957598;28;20194;-88
2021/09/12 02:12:43;;;;;;;10.90;3.80;;;17.10;71.10;;;;;;4957089;28;20477;-88
2021/09/12 02:15:09;;;;;;;9.03;5.00;;;17.20;71.20;;;;;;4959102;28;20558;-88
2021/09/12 02:17:35;;;;;;;8.50;4.10;;;17.10;71.30;;;;;;4961014;28;20211;-88
2021/09/12 02:20:01;;;;;;;6.40;3.80;;;17.10;71.30;;;;;;4982443;28;20548;-88
2021/09/12 02:22:27;;;;;;;10.55;3.70;;;17.20;71.30;;;;;;4968981;28;20467;-87
2021/09/12 02:24:53;;;;;;;7.27;4.40;;;17.20;71.00;;;;;;4970982;28;20187;-88
2021/09/12 02:27:18;;;;;;;9.30;4.47;;;17.10;71.00;;;;;;4961317;28;20176;-88
2021/09/12 02:29:44;;;;;;;6.20;4.47;;;17.10;71.10;;;;;;4975301;28;20558;-87
2021/09/12 02:32:10;;;;;;;7.87;3.87;;;17.10;71.20;;;;;;4974210;28;20249;-88
2021/09/12 02:34:35;;;;;;;5.03;4.03;;;17.10;71.20;;;;;;4958166;28;20180;-89
2021/09/12 02:37:01;;;;;;;7.20;3.70;;;17.00;71.30;;;;;;4957264;28;20180;-89
2021/09/12 02:39:27;;;;;;;4.27;3.60;;;17.00;71.40;;;;;;4941533;28;20184;-89
2021/09/12 02:41:52;;;;;;;6.47;3.40;;;17.00;71.50;;;;;;4975274;28;20238;-88
2021/09/12 02:44:18;;;;;;;5.20;3.87;;;17.00;71.50;;;;;;4957284;28;20207;-89
2021/09/12 02:46:44;;;;;;;6.10;3.57;;;16.90;71.70;;;;;;4976495;28;20184;-89
2021/09/12 02:49:09;;;;;;;7.93;3.83;;;17.00;71.70;;;;;;4974830;28;20215;-89
2021/09/12 02:51:35;;;;;;;5.37;4.10;;;17.00;71.60;;;;;;4974643;28;20281;-88
2021/09/12 02:54:01;;;;;;;8.00;4.83;;;16.90;71.80;;;;;;4957758;28;20655;-88
2021/09/12 02:56:27;;;;;;;5.07;3.50;;;16.80;71.80;;;;;;4957251;28;20270;-89
2021/09/12 02:58:52;;;;;;;5.23;3.97;;;16.80;71.90;;;;;;4959067;28;20179;-89
2021/09/12 03:01:18;;;;;;;7.13;3.70;;;16.80;72.00;;;;;;4957429;28;20239;-89
2021/09/12 03:03:44;;;;;;;8.90;4.20;;;16.80;72.00;;;;;;4957324;28;20208;-89
2021/09/12 03:06:09;;;;;;;7.30;5.00;;;16.90;72.10;;;;;;4957916;28;20275;-89
2021/09/12 03:08:35;;;;;;;4.30;3.20;;;16.80;72.00;;;;;;4958798;28;20184;-89
2021/09/12 03:11:01;;;;;;;7.70;4.00;;;16.80;72.00;;;;;;4960646;28;20187;-88
2021/09/12 03:13:26;;;;;;;5.40;4.40;;;16.80;72.10;;;;;;4995018;28;20211;-87
2021/09/12 03:15:52;;;;;;;8.90;3.80;;;16.80;72.20;;;;;;4970679;28;20239;-88
2021/09/12 03:18:18;;;;;;;6.10;4.90;;;16.60;72.20;;;;;;4976861;28;20183;-88
2021/09/12 03:20:43;;;;;;;6.17;4.13;;;16.70;72.40;;;;;;4958116;28;20187;-88
2021/09/12 03:23:09;;;;;;;9.63;4.03;;;16.80;72.40;;;;;;4961109;28;20203;-88
2021/09/12 03:25:38;;;;;;;11.50;5.10;;;16.90;72.20;;;;;;4980854;28;20619;-90
2021/09/12 03:28:04;;;;;;;6.07;4.10;;;16.90;71.90;;;;;;4961949;28;20472;-90
2021/09/12 03:30:30;;;;;;;11.33;5.27;;;16.90;71.90;;;;;;4963633;28;20275;-89
2021/09/12 03:32:56;;;;;;;6.23;3.80;;;16.80;71.60;;;;;;4962857;28;20254;-89
2021/09/12 03:35:21;;;;;;;10.00;4.73;;;16.80;71.70;;;;;;4970593;28;20215;-89
2021/09/12 03:37:47;;;;;;;12.80;5.80;;;17.00;71.80;;;;;;4995127;28;20192;-89
2021/09/12 03:40:13;;;;;;;11.90;4.40;;;17.10;71.60;;;;;;4988502;28;20200;-89
2021/09/12 03:42:39;;;;;;;9.32;5.00;;;17.10;71.40;;;;;;4971818;28;20204;-89
2021/09/12 03:45:05;;;;;;;6.97;4.10;;;17.10;71.30;;;;;;4950645;28;20188;-89
2021/09/12 03:47:31;;;;;;;6.18;3.75;;;17.10;71.20;;;;;;4960864;28;20212;-88
2021/09/12 03:49:57;;;;;;;8.03;4.23;;;17.00;71.20;;;;;;4963835;28;20207;-87
2021/09/12 03:52:22;;;;;;;10.07;4.17;;;16.90;71.30;;;;;;4969609;28;20250;-88
2021/09/12 03:54:48;;;;;;;5.10;4.60;;;16.90;71.50;;;;;;4977588;28;20175;-87
2021/09/12 03:57:14;;;;;;;11.00;5.70;;;16.80;71.40;;;;;;4992385;28;20630;-87
2021/09/12 03:59:39;;;;;;;8.17;5.43;;;16.90;71.70;;;;;;4979444;28;20175;-87
2021/09/12 04:02:05;;;;;;;7.63;5.70;;;16.90;71.70;;;;;;4963283;28;20184;-88
2021/09/12 04:04:31;;;;;;;6.53;4.90;;;17.10;71.70;;;;;;4949710;28;20187;-88
2021/09/12 04:06:56;;;;;;;6.83;4.47;;;17.00;71.40;;;;;;4980194;28;20188;-86
2021/09/12 04:09:22;;;;;;;8.83;5.07;;;17.10;71.30;;;;;;4983693;28;20164;-83
2021/09/12 04:11:48;;;;;;;8.60;4.53;;;17.10;71.30;;;;;;4983181;28;20199;-87
2021/09/12 04:14:14;;;;;;;9.20;5.17;;;17.20;71.00;;;;;;4983309;28;20199;-86
2021/09/12 04:16:40;;;;;;;8.70;6.17;;;17.00;70.90;;;;;;4983447;28;20236;-85
2021/09/12 04:19:06;;;;;;;9.30;5.40;;;17.00;71.20;;;;;;4983526;28;20439;-87
2021/09/12 04:21:32;;;;;;;9.60;5.80;;;17.00;71.10;;;;;;4983339;28;20291;-88
2021/09/12 04:23:57;;;;;;;16.92;5.90;;;17.00;71.30;;;;;;5000309;28;20206;-85
2021/09/12 04:26:23;;;;;;;10.73;5.80;;;16.90;71.40;;;;;;4983204;28;20207;-87
2021/09/12 04:28:50;;;;;;;11.40;4.57;;;16.90;71.30;;;;;;4983125;28;20199;-87
2021/09/12 04:31:15;;;;;;;10.43;5.93;;;16.90;71.40;;;;;;4982508;28;20187;-87
2021/09/12 04:33:41;;;;;;;9.30;6.57;;;16.80;71.40;;;;;;4999778;28;20230;-87
2021/09/12 04:36:07;;;;;;;7.73;5.63;;;16.80;71.60;;;;;;4969455;28;20191;-88
2021/09/12 04:38:32;;;;;;;8.20;5.60;;;16.70;71.60;;;;;;4962704;28;20180;-88
2021/09/12 04:41:00;;;;;;;11.00;6.10;;;16.80;71.80;;;;;;4978097;28;20177;-88
2021/09/12 04:43:26;;;;;;;9.95;5.10;;;16.90;71.90;;;;;;4976102;28;20198;-88
2021/09/12 04:45:51;;;;;;;11.10;5.90;;;16.80;71.70;;;;;;4959610;28;20183;-88
2021/09/12 04:48:17;;;;;;;10.57;6.43;;;16.70;72.00;;;;;;4959468;28;20433;-89
2021/09/12 04:50:43;;;;;;;7.00;5.23;;;16.80;72.10;;;;;;4959635;28;20188;-89
2021/09/12 04:53:09;;;;;;;12.50;6.80;;;16.70;72.10;;;;;;4959017;28;20215;-90
2021/09/12 04:55:34;;;;;;;7.43;6.60;;;16.70;72.20;;;;;;4959253;28;20180;-88
2021/09/12 04:58:00;;;;;;;9.63;5.30;;;16.80;71.90;;;;;;4971422;28;20451;-88
2021/09/12 05:00:26;;;;;;;9.77;5.30;;;16.90;71.70;;;;;;4976654;28;20562;-88
2021/09/12 05:02:52;;;;;;;7.57;4.80;;;16.80;71.30;;;;;;4965834;28;20267;-86
2021/09/12 05:05:17;;;;;;;7.93;4.43;;;16.80;71.40;;;;;;4999349;28;20184;-89
2021/09/12 05:07:43;;;;;;;7.67;5.50;;;16.70;71.60;;;;;;4980460;28;20184;-90
2021/09/12 05:10:10;;;;;;;8.80;6.30;;;16.70;71.80;;;;;;4978587;28;20176;-90
2021/09/12 05:12:35;;;;;;;11.18;6.05;;;16.60;71.90;;;;;;4981601;28;20525;-88
2021/09/12 05:15:01;;;;;;;7.47;5.10;;;16.50;72.30;;;;;;4982101;28;20172;-89
2021/09/12 05:17:27;;;;;;;8.77;5.73;;;16.50;72.40;;;;;;4964252;28;20238;-89
2021/09/12 05:19:53;;;;;;;9.63;4.77;;;16.50;72.40;;;;;;4958794;28;20192;-88
2021/09/12 05:22:19;;;;;;;9.33;5.70;;;16.30;72.50;;;;;;4959032;28;20447;-88
2021/09/12 05:24:44;;;;;;;11.60;7.90;;;16.20;73.00;;;;;;4958597;28;20345;-88
2021/09/12 05:27:10;;;;;;;8.60;5.77;;;16.40;74.00;;;;;;4958597;28;20188;-88
2021/09/12 05:29:36;;;;;;;8.30;6.03;;;16.50;73.00;;;;;;4958514;28;20180;-88
2021/09/12 05:32:01;;;;;;;12.57;5.43;;;16.50;72.90;;;;;;4975417;28;20258;-88
2021/09/12 05:34:27;;;;;;;12.20;6.00;;;16.60;72.80;;;;;;4958852;28;20220;-88
2021/09/12 05:36:53;;;;;;;11.77;5.47;;;16.50;72.70;;;;;;4958683;28;20411;-89
2021/09/12 05:39:18;;;;;;;13.73;6.40;;;16.60;73.00;;;;;;4976184;28;20183;-90
2021/09/12 05:41:45;;;;;;;10.90;4.40;;;16.80;72.60;;;;;;4958656;28;20202;-89
2021/09/12 05:44:10;;;;;;;12.63;6.28;;;17.10;72.40;;;;;;4958207;28;20200;-88
2021/09/12 05:46:36;;;;;;;9.30;5.47;;;17.40;71.30;;;;;;4970983;28;20184;-87
2021/09/12 05:49:03;;;;;;;11.90;6.83;;;17.70;70.30;;;;;;4971652;28;20204;-87
2021/09/12 05:51:29;;;;;;;12.32;5.45;;;17.80;69.60;;;;;;4968560;28;20184;-88
2021/09/12 05:53:54;;;;;;;8.05;5.22;;;18.00;69.00;;;;;;4964234;28;20203;-88
2021/09/12 05:56:20;;;;;;;9.93;4.90;;;18.00;68.40;;;;;;4978356;28;20258;-88
2021/09/12 05:58:46;;;;;;;5.90;4.50;;;18.10;68.20;;;;;;4963437;28;20171;-88
2021/09/12 06:01:13;;;;;;;7.93;6.27;;;18.00;68.00;;;;;;4960934;28;20172;-88
2021/09/12 06:03:40;;;;;;;6.78;4.93;;;17.90;68.50;;;;;;4979255;28;20191;-89
2021/09/12 06:06:05;;;;;;;10.30;4.65;;;18.10;68.80;;;;;;4962885;28;20197;-89
2021/09/12 06:08:31;;;;;;;9.20;6.03;;;18.10;68.30;;;;;;4961780;28;20269;-88
2021/09/12 06:10:57;;;;;;;7.53;4.23;;;18.10;68.30;;;;;;4965318;28;20425;-88
2021/09/12 06:13:25;;;;;;;6.37;4.83;;;18.10;68.60;;;;;;4982651;28;20208;-88
2021/09/12 06:15:57;;;;;;;9.43;5.00;;;18.00;68.50;;;;;;4986491;28;20411;-88
2021/09/12 06:18:23;;;;;;;13.05;5.30;;;18.10;68.90;;;;;;4973245;28;20243;-88
2021/09/12 06:20:49;;;;;;;17.10;4.97;;;17.90;68.90;;;;;;4973131;28;20195;-88
2021/09/12 06:23:15;;;;;;;8.73;4.70;;;17.90;69.10;;;;;;4989849;28;20276;-88
2021/09/12 06:25:40;;;;;;;8.23;5.03;;;18.10;69.10;;;;;;4978226;28;20194;-89
2021/09/12 06:28:06;;;;;;;6.13;4.73;;;17.90;69.00;;;;;;4976064;28;20278;-88
2021/09/12 06:30:32;;;;;;;7.33;5.10;;;17.80;69.50;;;;;;4959437;28;20191;-88
2021/09/12 06:32:58;;;;;;;17.17;5.47;;;18.00;69.70;;;;;;4941914;28;20924;-89
2021/09/12 06:35:23;;;;;;;8.60;5.30;;;18.20;69.20;;;;;;4958348;28;20234;-89
2021/09/12 06:37:49;;;;;;;8.00;5.10;;;18.30;68.70;;;;;;4975454;28;20172;-89
2021/09/12 06:40:16;;;;;;;6.53;4.57;;;18.20;68.70;;;;;;4958094;28;20279;-90
2021/09/12 06:42:42;;;;;;;9.73;4.50;;;18.20;69.00;;;;;;4957821;28;20223;-89
2021/09/12 06:45:08;;;;;;;8.90;4.33;;;18.30;69.20;;;;;;4958234;28;20187;-90
2021/09/12 06:47:35;;;;;;;9.68;4.53;;;18.30;68.80;;;;;;4958447;28;20187;-88
2021/09/12 06:50:01;;;;;;;14.20;4.32;;;18.30;68.80;;;;;;4958940;28;20210;-89
2021/09/12 06:52:27;;;;;;;6.53;4.65;;;18.20;68.80;;;;;;4941782;28;20246;-90
2021/09/12 06:54:53;;;;;;;9.33;4.80;;;18.20;68.90;;;;;;4959463;28;20373;-90
2021/09/12 06:57:19;;;;;;;9.17;4.93;;;18.20;69.10;;;;;;4961972;28;20184;-90
2021/09/12 06:59:44;;;;;;;8.63;4.60;;;18.30;69.20;;;;;;4962321;28;20184;-90
2021/09/12 07:02:12;;;;;;;6.87;4.43;;;18.20;68.90;;;;;;4961792;28;20311;-90
2021/09/12 07:04:38;;;;;;;8.77;4.32;;;18.50;69.80;;;;;;4961953;28;20242;-88
2021/09/12 07:07:04;;;;;;;10.55;5.05;;;18.50;68.80;;;;;;4961761;28;20207;-88
2021/09/12 07:09:30;;;;;;;6.67;5.03;;;18.70;68.70;;;;;;4962444;28;20188;-89
2021/09/12 07:11:56;;;;;;;7.13;4.80;;;18.70;68.20;;;;;;4961011;28;20455;-87
2021/09/12 07:14:21;;;;;;;11.20;6.00;;;18.70;68.20;;;;;;4980922;28;20179;-90
2021/09/12 07:16:48;;;;;;;10.03;5.70;;;18.80;68.00;;;;;;4963052;28;20196;-89
2021/09/12 07:19:13;;;;;;;10.07;5.32;;;19.00;68.00;;;;;;4963067;28;20176;-89
2021/09/12 07:21:39;;;;;;;14.03;5.87;;;19.20;67.10;;;;;;4963190;28;20194;-88
2021/09/12 07:24:05;;;;;;;12.30;5.73;;;19.20;66.70;;;;;;4961642;28;20263;-89
2021/09/12 07:26:31;;;;;;;11.33;5.33;;;19.10;67.20;;;;;;4962117;28;20227;-88
2021/09/12 07:28:56;;;;;;;19.67;6.60;;;19.20;67.50;;;;;;4960854;28;20184;-88
2021/09/12 07:31:22;;;;;;;14.07;6.97;;;19.40;67.20;;;;;;4960814;28;20184;-91
2021/09/12 07:33:48;;;;;;;15.33;6.47;;;19.60;67.10;;;;;;4961153;28;20239;-91
2021/09/12 07:36:14;;;;;;;12.17;6.03;;;19.80;66.50;;;;;;4962707;28;20676;-89
2021/09/12 07:38:40;;;;;;;19.70;6.77;;;19.80;66.30;;;;;;4961312;28;20678;-89
2021/09/12 07:41:05;;;;;;;10.50;6.20;;;19.70;66.70;;;;;;4961819;28;20164;-90
2021/09/12 07:43:31;;;;;;;18.10;7.13;;;20.00;66.70;;;;;;4961844;28;20234;-91
2021/09/12 07:45:58;;;;;;;14.33;7.40;;;20.20;65.90;;;;;;4961161;28;20214;-87
2021/09/12 07:48:24;;;;;;;11.43;6.88;;;20.00;65.50;;;;;;4978735;28;20240;-86
2021/09/12 07:50:50;;;;;;;14.30;6.60;;;19.90;65.90;;;;;;4979514;28;20184;-87
2021/09/12 07:53:16;;;;;;;14.33;8.40;;;19.90;66.10;;;;;;4960177;28;20216;-87
2021/09/12 07:55:41;;;;;;;11.50;7.53;;;20.00;66.00;;;;;;4960124;28;20522;-88
2021/09/12 07:58:08;;;;;;;16.30;6.97;;;20.10;65.90;;;;;;4961054;28;20282;-91
2021/09/12 08:00:34;;;;;;;20.63;8.82;;;20.10;66.00;;;;;;4961600;28;20176;-90
2021/09/12 08:03:00;;;;;;;24.35;8.35;;;19.90;66.30;;;;;;4959376;28;20425;-87
2021/09/12 08:05:25;;;;;;;15.60;7.87;;;19.70;67.10;;;;;;4960317;28;20184;-88
2021/09/12 08:07:51;;;;;;;13.23;7.30;;;19.70;67.50;;;;;;4977014;28;20171;-89
2021/09/12 08:10:17;;;;;;;14.20;7.93;;;19.80;67.30;;;;;;4977765;28;20180;-90
2021/09/12 08:12:43;;;;;;;22.40;7.63;;;20.00;67.10;;;;;;4960142;28;20227;-89
2021/09/12 08:15:09;;;;;;;10.67;6.03;;;20.10;66.80;;;;;;4960340;28;20186;-87
2021/09/12 08:17:35;;;;;;;21.50;6.38;;;20.30;66.40;;;;;;4977352;28;20412;-88
2021/09/12 08:20:01;;;;;;;14.83;8.27;;;20.20;66.30;;;;;;4960410;28;20210;-89
2021/09/12 08:22:26;;;;;;;12.30;6.90;;;20.10;66.60;;;;;;4959171;28;20564;-89
2021/09/12 08:24:52;;;;;;;17.97;7.47;;;20.00;66.70;;;;;;4959978;28;20172;-87
2021/09/12 08:27:18;;;;;;;13.63;6.80;;;20.00;66.80;;;;;;4929191;28;20485;-89
2021/09/12 08:29:44;;;;;;;11.77;6.47;;;20.00;67.00;;;;;;4959986;28;20420;-89
2021/09/12 08:32:10;;;;;;;15.63;6.37;;;20.10;67.40;;;;;;4959328;28;20979;-88
2021/09/12 08:34:36;;;;;;;17.20;8.07;;;20.50;67.30;;;;;;4978535;28;20246;-89
2021/09/12 08:37:04;;;;;;;10.73;6.15;;;20.80;66.40;;;;;;4959497;28;20658;-89
2021/09/12 08:39:30;;;;;;;13.00;7.75;;;20.80;65.50;;;;;;4976806;28;20184;-91
2021/09/12 08:41:56;;;;;;;14.15;7.15;;;20.80;65.50;;;;;;4977016;28;20639;-90
2021/09/12 08:44:23;;;;;;;16.60;7.40;;;21.00;65.00;;;;;;4959424;28;20198;-90
2021/09/12 08:46:49;;;;;;;14.02;8.25;;;20.80;64.90;;;;;;4960563;28;21101;-91
2021/09/12 08:49:16;;;;;;;13.77;6.87;;;20.90;65.20;;;;;;4959344;28;20196;-90
2021/09/12 08:51:42;;;;;;;15.85;8.38;;;21.00;64.80;;;;;;4959754;28;20526;-91
2021/09/12 08:54:11;;;;;;;15.50;7.20;;;20.80;65.20;;;;;;4959352;28;20286;-89
2021/09/12 08:56:37;;;;;;;18.00;8.20;;;20.70;65.70;;;;;;4959218;28;20588;-90
2021/09/12 08:59:03;;;;;;;15.80;7.00;;;20.80;65.90;;;;;;4959540;28;20180;-88
2021/09/12 09:01:34;;;;;;;16.30;7.10;;;21.40;65.40;;;;;;4942512;28;20434;-89
2021/09/12 09:04:02;;;;;;;12.85;7.10;;;21.40;64.40;;;;;;4960458;28;20698;-89
2021/09/12 09:06:36;;;;;;;15.50;9.02;;;21.40;64.20;;;;;;4962905;28;20188;-89
2021/09/12 09:09:04;;;;;;;12.53;6.73;;;21.60;63.90;;;;;;4968379;28;20536;-88
2021/09/12 09:11:39;;;;;;;12.63;6.90;;;21.70;63.50;;;;;;4952797;28;20447;-88
2021/09/12 09:14:21;;;;;;;17.13;7.90;;;21.90;63.20;;;;;;4965907;28;20537;-90
2021/09/12 09:16:50;;;;;;;15.50;7.43;;;21.90;63.00;;;;;;4976698;28;20830;-86
2021/09/12 09:19:18;;;;;;;11.00;6.43;;;21.70;63.60;;;;;;4958376;28;20770;-87
2021/09/12 09:21:46;;;;;;;13.87;6.90;;;21.70;63.80;;;;;;4973131;28;20573;-86
2021/09/12 09:24:26;;;;;;;12.90;8.10;;;21.90;63.80;;;;;;4979943;28;20477;-88
2021/09/12 09:27:01;;;;;;;14.00;6.50;;;22.20;63.60;;;;;;4960820;28;20905;-87
2021/09/12 09:29:32;;;;;;;13.43;6.73;;;22.50;63.50;;;;;;4958621;28;20487;-88
2021/09/12 09:32:08;;;;;;;14.43;7.80;;;22.80;62.10;;;;;;4973762;28;20463;-87
2021/09/12 09:34:39;;;;;;;14.37;6.23;;;23.00;62.30;;;;;;4959705;28;20757;-89
2021/09/12 09:37:18;;;;;;;9.87;6.37;;;23.00;62.20;;;;;;4958889;28;20420;-90
2021/09/12 09:39:57;;;;;;;14.53;5.77;;;23.30;62.30;;;;;;4958872;28;20415;-89
2021/09/12 09:42:44;;;;;;;12.10;6.97;;;23.20;61.60;;;;;;4969365;28;20442;-89
2021/09/12 09:45:12;;;;;;;11.10;6.63;;;23.50;61.10;;;;;;4988091;28;20431;-89
2021/09/12 09:47:40;;;;;;;10.90;6.53;;;23.50;61.00;;;;;;4972071;28;20423;-88
2021/09/12 09:50:22;;;;;;;12.97;7.17;;;23.80;60.90;;;;;;4973192;28;20420;-88
2021/09/12 09:52:53;;;;;;;15.93;6.77;;;24.10;59.90;;;;;;4982103;28;20522;-88
2021/09/12 09:55:24;;;;;;;15.73;6.37;;;24.20;59.20;;;;;;4977989;28;20454;-88
2021/09/12 09:57:52;;;;;;;14.27;7.10;;;23.70;59.60;;;;;;4978556;28;20400;-88
2021/09/12 10:00:20;;;;;;;8.67;6.70;;;23.60;60.40;;;;;;4966806;28;20423;-89
2021/09/12 10:02:46;;;;;;;14.23;7.33;;;23.50;60.40;;;;;;4974164;28;20467;-89
2021/09/12 10:05:17;;;;;;;13.83;6.70;;;23.60;60.60;;;;;;4974682;28;20504;-88
2021/09/12 10:07:43;;;;;;;13.80;7.43;;;23.70;60.10;;;;;;4978151;28;20411;-88
2021/09/12 10:10:11;;;;;;;12.70;7.30;;;23.80;59.50;;;;;;4981574;28;20443;-87
2021/09/12 10:13:02;;;;;;;15.43;7.03;;;24.10;58.60;;;;;;4998038;28;20513;-88
2021/09/12 10:15:32;;;;;;;9.07;6.00;;;24.20;57.50;;;;;;4980181;28;20421;-88
2021/09/12 10:17:59;;;;;;;16.53;7.90;;;23.90;58.20;;;;;;4981220;28;20434;-89
2021/09/12 10:20:27;;;;;;;10.23;6.57;;;23.80;59.10;;;;;;4997849;28;20452;-89
2021/09/12 10:22:55;;;;;;;14.00;8.93;;;23.70;58.90;;;;;;4978453;28;20441;-89
2021/09/12 10:25:22;;;;;;;9.07;6.57;;;24.10;58.50;;;;;;4978329;28;20557;-88
2021/09/12 10:27:59;;;;;;;11.50;6.43;;;24.10;58.10;;;;;;4979531;28;20415;-88
2021/09/12 10:30:33;;;;;;;13.63;8.37;;;24.40;58.60;;;;;;4981964;28;20423;-88
2021/09/12 10:33:05;;;;;;;19.13;8.10;;;24.10;57.90;;;;;;4984869;28;20493;-89
2021/09/12 10:35:49;;;;;;;20.53;8.80;;;23.90;58.40;;;;;;4985168;28;20484;-88
2021/09/12 10:38:29;;;;;;;8.93;6.13;;;24.30;58.30;;;;;;5002268;28;20419;-88
2021/09/12 10:40:55;;;;;;;12.03;8.67;;;24.40;58.90;;;;;;5002290;28;20466;-88
2021/09/12 10:43:24;;;;;;;19.80;10.70;;;24.10;58.80;;;;;;4985130;28;20461;-88
2021/09/12 10:46:06;;;;;;;16.07;10.90;;;24.10;58.60;;;;;;4985318;28;20184;-89
2021/09/12 10:48:45;;;;;;;16.30;10.83;;;23.70;58.50;;;;;;4978413;28;20442;-89
2021/09/12 10:51:11;;;;;;;15.43;10.67;;;23.80;58.60;;;;;;4982583;28;20435;-89
2021/09/12 10:53:45;;;;;;;16.07;9.00;;;23.60;58.80;;;;;;4981280;28;20510;-89
2021/09/12 10:56:17;;;;;;;13.50;8.60;;;23.40;60.10;;;;;;4975264;28;20411;-88
2021/09/12 10:58:45;;;;;;;19.00;11.37;;;23.40;61.20;;;;;;4981270;28;20423;-88
2021/09/12 11:01:24;;;;;;;20.33;12.47;;;23.50;61.70;;;;;;4994864;28;20426;-89
2021/09/12 11:03:50;;;;;;;16.97;12.07;;;23.40;60.30;;;;;;4960031;28;20442;-88
2021/09/12 11:06:16;;;;;;;18.70;13.50;;;23.10;61.00;;;;;;4977389;28;20494;-90
2021/09/12 11:08:43;;;;;;;12.90;10.60;;;22.90;61.50;;;;;;4979450;28;20415;-89
2021/09/12 11:11:11;;;;;;;14.80;10.20;;;22.90;62.20;;;;;;4946302;28;20459;-89
2021/09/12 11:13:39;;;;;;;25.03;10.50;;;23.00;62.60;;;;;;4961870;28;20561;-91
2021/09/12 11:16:12;;;;;;;18.73;11.27;;;23.10;62.80;;;;;;4962411;28;20455;-92
2021/09/12 11:18:49;;;;;;;18.40;10.40;;;23.40;61.40;;;;;;4980813;28;20482;-90
2021/09/12 11:21:34;;;;;;;14.07;11.47;;;23.30;62.00;;;;;;4963019;28;20498;-90
2021/09/12 11:24:07;;;;;;;14.37;10.07;;;23.10;61.30;;;;;;4978989;28;20427;-88
2021/09/12 11:26:40;;;;;;;19.07;10.37;;;23.10;60.80;;;;;;4961264;28;20896;-88
2021/09/12 11:29:11;;;;;;;10.50;7.93;;;23.20;60.50;;;;;;4961345;28;20470;-88
2021/09/12 11:31:38;;;;;;;19.20;8.27;;;23.10;61.50;;;;;;4961003;28;20419;-88
2021/09/12 11:34:04;;;;;;;13.27;10.80;;;23.40;61.80;;;;;;4961214;28;20554;-89
2021/09/12 11:36:43;;;;;;;22.37;10.03;;;23.50;60.90;;;;;;4960638;28;20448;-90
2021/09/12 11:39:10;;;;;;;14.50;11.60;;;23.70;60.50;;;;;;4961114;28;20507;-90
2021/09/12 11:41:36;;;;;;;17.27;10.67;;;23.70;59.60;;;;;;4976940;28;20816;-90
2021/09/12 11:44:20;;;;;;;16.87;9.70;;;23.40;59.80;;;;;;4961010;28;20470;-89
2021/09/12 11:46:49;;;;;;;13.63;8.40;;;23.30;60.50;;;;;;4960742;28;20282;-90
2021/09/12 11:49:16;;;;;;;12.60;9.33;;;23.50;60.00;;;;;;4979048;28;20419;-88
2021/09/12 11:51:48;;;;;;;12.53;11.30;;;23.50;59.20;;;;;;4960456;28;20423;-89
2021/09/12 11:54:27;;;;;;;15.93;11.57;;;23.90;57.70;;;;;;4946157;28;20454;-89
2021/09/12 11:57:10;;;;;;;9.73;8.67;;;23.70;57.60;;;;;;4961980;28;20415;-89
2021/09/12 11:59:48;;;;;;;12.40;10.07;;;23.60;58.20;;;;;;4960765;28;20434;-90
2021/09/12 12:02:25;;;;;;;10.60;9.60;;;23.80;57.20;;;;;;4977953;28;20463;-89
2021/09/12 12:04:51;;;;;;;13.50;10.70;;;24.00;56.00;;;;;;4960708;28;20429;-89
2021/09/12 12:07:18;;;;;;;11.80;10.37;;;23.80;56.30;;;;;;4978180;28;20407;-89
2021/09/12 12:09:47;;;;;;;14.10;12.07;;;23.70;56.30;;;;;;4961146;28;20426;-89
2021/09/12 12:12:15;;;;;;;14.20;10.27;;;23.90;56.50;;;;;;4960459;28;20455;-89
2021/09/12 12:14:47;;;;;;;12.80;10.90;;;24.30;56.10;;;;;;4961473;28;20417;-89
2021/09/12 12:17:19;;;;;;;13.83;11.43;;;24.70;55.40;;;;;;4979997;28;20411;-89
2021/09/12 12:19:45;;;;;;;11.87;10.00;;;25.20;54.30;;;;;;4960755;28;20434;-89
2021/09/12 12:22:11;;;;;;;18.40;11.63;;;25.30;53.40;;;;;;4959711;28;20526;-90
2021/09/12 12:24:40;;;;;;;11.63;10.43;;;25.20;53.50;;;;;;4960214;28;20530;-89
2021/09/12 12:27:11;;;;;;;10.07;8.90;;;25.50;53.00;;;;;;4959914;28;20993;-89
2021/09/12 12:29:42;;;;;;;14.13;9.83;;;25.30;52.80;;;;;;4977247;28;20434;-89
2021/09/12 12:32:10;;;;;;;12.40;11.13;;;25.20;53.50;;;;;;4960301;28;20865;-90
2021/09/12 12:34:36;;;;;;;13.30;11.80;;;25.40;52.40;;;;;;4960052;28;20931;-88
2021/09/12 12:37:03;;;;;;;15.97;10.90;;;25.30;52.10;;;;;;4977683;28;20412;-89
2021/09/12 12:39:29;;;;;;;15.10;10.90;;;25.20;52.50;;;;;;4977725;28;20426;-88
2021/09/12 12:41:55;;;;;;;13.93;11.70;;;25.50;52.60;;;;;;4977122;28;20869;-88